Time;durP1;ratioP1;P1;durP2;ratioP2;P2;SDS_P1;SDS_P2;PMS_P1;PMS_P2;Temp;Humidity;BMP_temperature;BMP_pressure;BME280_temperature;BME280_humidity;BME280_pressure;Samples;Min_cycle;Max_cycle;Signal;HPM_P1;HPM_P2
2023/08/15 10:35:13;;;;;;;4.60;1.70;;;13.10;84.30;;;;;;6175498;22;3231272;-69
2023/08/15 10:37:42;;;;;;;3.10;1.60;;;13.10;84.40;;;;;;6239859;23;20012;-66
2023/08/15 10:40:13;;;;;;;4.93;1.77;;;13.00;84.60;;;;;;6240245;23;20015;-69
2023/08/15 10:43:03;;;;;;;3.42;1.80;;;13.00;84.70;;;;;;6241361;23;20004;-69
2023/08/15 10:45:44;;;;;;;7.43;2.30;;;12.90;84.70;;;;;;6232363;23;20008;-66
2023/08/15 10:48:11;;;;;;;4.78;2.05;;;12.80;85.00;;;;;;6241614;22;20015;-66
2023/08/15 10:50:44;;;;;;;6.35;2.20;;;12.80;85.40;;;;;;6241822;22;20028;-66
2023/08/15 10:53:11;;;;;;;4.90;1.80;;;12.80;85.60;;;;;;6241225;22;20015;-68
2023/08/15 10:55:39;;;;;;;3.15;1.45;;;12.80;86.00;;;;;;6241219;22;20382;-67
2023/08/15 10:58:11;;;;;;;3.63;1.30;;;12.80;86.30;;;;;;6239924;23;20035;-67
2023/08/15 11:00:39;;;;;;;2.53;1.30;;;12.80;86.40;;;;;;6215110;23;20087;-67
2023/08/15 11:03:07;;;;;;;4.85;1.52;;;12.80;86.50;;;;;;6241683;22;20018;-67
2023/08/15 11:05:34;;;;;;;2.13;1.23;;;12.80;86.60;;;;;;6241494;22;20014;-67
2023/08/15 11:08:19;;;;;;;4.88;1.70;;;12.80;86.70;;;;;;6242284;22;20023;-65
2023/08/15 11:13:28;;;;;;;5.95;1.67;;;12.70;87.00;;;;;;6242320;23;20138;-72
2023/08/15 11:15:55;;;;;;;5.07;1.58;;;12.80;87.20;;;;;;6241738;22;20027;-72
2023/08/15 11:18:24;;;;;;;2.22;1.30;;;12.80;87.30;;;;;;6209432;23;20007;-74
2023/08/15 11:20:52;;;;;;;3.30;1.50;;;12.80;87.50;;;;;;6234665;23;20386;-75
2023/08/15 11:23:20;;;;;;;2.42;1.60;;;12.80;87.40;;;;;;6210763;23;20462;-75
2023/08/15 11:25:48;;;;;;;5.28;1.70;;;12.80;87.40;;;;;;6210323;23;20007;-75
2023/08/15 11:28:15;;;;;;;3.85;1.95;;;12.70;87.40;;;;;;6207836;23;20009;-76
2023/08/15 11:30:42;;;;;;;3.83;1.83;;;12.70;87.40;;;;;;6209620;23;20005;-76
2023/08/15 11:33:10;;;;;;;2.25;1.60;;;12.70;87.50;;;;;;6233728;23;20012;-78
2023/08/15 11:35:37;;;;;;;4.20;1.50;;;12.80;87.50;;;;;;6209508;23;20088;-75
2023/08/15 11:38:08;;;;;;;2.40;1.20;;;12.70;87.50;;;;;;6233895;23;20476;-74
2023/08/15 11:40:35;;;;;;;3.47;1.45;;;12.70;87.40;;;;;;6208481;23;20000;-79
2023/08/15 11:43:03;;;;;;;6.13;2.28;;;12.70;87.50;;;;;;6209391;23;20439;-77
2023/08/15 11:45:32;;;;;;;3.95;1.92;;;12.70;87.50;;;;;;6234468;23;20000;-80
2023/08/15 11:48:03;;;;;;;3.88;2.10;;;12.70;87.30;;;;;;6210921;23;20026;-78
2023/08/15 11:50:32;;;;;;;7.90;2.58;;;12.70;87.30;;;;;;6211101;23;20005;-78
2023/08/15 11:53:00;;;;;;;5.35;1.52;;;12.60;87.10;;;;;;6209180;23;20350;-79
2023/08/15 11:55:32;;;;;;;3.80;1.85;;;12.70;87.10;;;;;;6209710;23;20024;-77
2023/08/15 11:57:59;;;;;;;2.75;1.60;;;12.70;87.00;;;;;;6233927;23;20008;-80
2023/08/15 12:00:26;;;;;;;3.72;1.67;;;12.70;87.10;;;;;;6211263;23;20004;-78
2023/08/15 12:02:54;;;;;;;3.40;1.75;;;12.70;87.00;;;;;;6209347;23;20451;-77
2023/08/15 12:05:22;;;;;;;3.67;1.95;;;12.70;86.90;;;;;;6211416;23;20016;-79
2023/08/15 12:07:50;;;;;;;3.30;1.83;;;12.70;86.90;;;;;;6211149;23;20036;-84
2023/08/15 12:10:17;;;;;;;4.53;2.28;;;12.70;87.00;;;;;;6211574;23;20015;-79
2023/08/15 13:10:03;;;;;;;3.25;1.60;;;12.20;88.40;;;;;;6239522;22;20048;-81
2023/08/15 13:12:30;;;;;;;7.15;1.63;;;12.10;88.70;;;;;;6244392;23;20016;-81
2023/08/15 13:14:58;;;;;;;4.10;1.60;;;12.10;88.60;;;;;;6243447;23;20004;-80
2023/08/15 13:17:25;;;;;;;4.53;1.70;;;12.10;88.60;;;;;;6243754;23;20007;-80
2023/08/15 13:19:53;;;;;;;3.45;1.63;;;12.00;88.40;;;;;;6219028;23;20004;-81
2023/08/15 13:22:20;;;;;;;5.10;1.70;;;12.10;88.30;;;;;;6194708;23;20011;-81
2023/08/15 13:24:47;;;;;;;3.53;1.60;;;12.00;88.20;;;;;;6246323;23;20424;-81
2023/08/15 13:27:14;;;;;;;4.90;1.65;;;12.00;88.10;;;;;;6246664;23;20011;-81
2023/08/15 13:29:42;;;;;;;4.38;1.77;;;12.00;88.00;;;;;;6219394;23;20004;-80
2023/08/15 13:32:09;;;;;;;4.28;2.08;;;12.00;87.90;;;;;;6245973;23;20477;-81
2023/08/15 13:34:36;;;;;;;5.45;1.95;;;11.90;87.60;;;;;;6246444;23;20000;-81
2023/08/15 13:37:03;;;;;;;4.25;2.00;;;12.00;87.50;;;;;;6245991;23;20062;-80
2023/08/15 13:39:30;;;;;;;4.53;1.73;;;11.90;87.70;;;;;;6246071;23;20035;-81
2023/08/15 13:41:58;;;;;;;3.03;2.00;;;11.90;87.60;;;;;;6218862;23;20019;-81
2023/08/15 13:44:25;;;;;;;4.30;2.00;;;11.90;87.60;;;;;;6245675;23;20004;-81
2023/08/15 13:46:52;;;;;;;5.75;2.60;;;11.90;87.50;;;;;;6246412;23;20000;-80
2023/08/15 13:49:20;;;;;;;5.68;2.63;;;11.90;87.40;;;;;;6246351;23;20000;-81
2023/08/15 13:51:47;;;;;;;6.72;2.30;;;11.80;86.90;;;;;;6245850;23;20008;-81
2023/08/15 13:54:15;;;;;;;4.82;2.28;;;11.80;87.40;;;;;;6246328;23;20453;-80
2023/08/15 13:56:42;;;;;;;3.95;2.20;;;11.80;87.30;;;;;;6245632;23;20004;-81
2023/08/15 13:59:09;;;;;;;5.97;2.20;;;11.80;87.10;;;;;;6245897;23;20008;-81
2023/08/15 14:01:36;;;;;;;7.85;2.25;;;11.80;86.90;;;;;;6246111;23;20027;-81
2023/08/15 14:04:04;;;;;;;6.20;2.30;;;11.80;87.10;;;;;;6245546;23;20461;-81
2023/08/15 14:06:31;;;;;;;5.20;2.15;;;11.80;87.20;;;;;;6246586;23;20000;-81
2023/08/15 14:08:58;;;;;;;5.57;2.08;;;11.80;87.40;;;;;;6218465;23;20008;-81
2023/08/15 14:11:25;;;;;;;4.40;2.40;;;11.70;88.10;;;;;;6246112;23;20012;-79
2023/08/15 14:13:53;;;;;;;5.05;2.75;;;11.70;89.10;;;;;;6245519;23;20443;-78
2023/08/15 14:16:20;;;;;;;4.00;2.65;;;11.70;89.90;;;;;;6245637;23;20012;-78
2023/08/15 14:18:47;;;;;;;3.55;2.30;;;11.60;90.60;;;;;;6245822;23;20479;-77
2023/08/15 14:21:15;;;;;;;5.13;2.72;;;11.50;91.20;;;;;;6245950;23;19996;-73
2023/08/15 14:23:44;;;;;;;3.83;2.40;;;11.40;91.70;;;;;;6245055;23;20010;-76
2023/08/15 14:26:11;;;;;;;5.72;3.05;;;11.40;91.60;;;;;;6217770;23;20006;-75
2023/08/15 14:28:38;;;;;;;5.70;2.55;;;11.30;92.10;;;;;;6192536;23;20007;-76
2023/08/15 14:31:06;;;;;;;4.90;2.75;;;11.20;92.00;;;;;;6217383;23;20000;-75
2023/08/15 14:33:33;;;;;;;6.88;2.78;;;11.20;92.30;;;;;;6243776;23;20016;-75
2023/08/15 14:36:00;;;;;;;5.85;2.78;;;11.20;92.40;;;;;;6243846;23;20008;-76
2023/08/15 14:38:28;;;;;;;2.97;2.20;;;11.10;92.40;;;;;;6243999;23;20008;-76
2023/08/15 14:40:55;;;;;;;5.05;2.38;;;11.10;92.60;;;;;;6245145;23;20020;-75
2023/08/15 14:43:22;;;;;;;4.68;2.20;;;11.20;92.80;;;;;;6245795;23;20050;-75
2023/08/15 14:45:49;;;;;;;5.50;2.40;;;11.10;92.80;;;;;;6244534;23;20020;-75
2023/08/15 14:48:16;;;;;;;4.70;2.10;;;11.10;92.90;;;;;;6244036;23;20064;-74
2023/08/15 14:50:44;;;;;;;3.00;2.03;;;11.10;93.00;;;;;;6245608;23;20288;-74
2023/08/15 14:53:11;;;;;;;3.70;2.35;;;11.10;93.30;;;;;;6245793;23;20023;-74
2023/08/15 14:55:38;;;;;;;5.88;2.20;;;11.10;93.20;;;;;;6246220;23;20000;-75
2023/08/15 14:58:05;;;;;;;4.63;2.00;;;11.00;93.10;;;;;;6219025;23;20001;-75
2023/08/15 15:00:32;;;;;;;5.53;2.00;;;11.10;93.10;;;;;;6245889;23;20439;-75
2023/08/15 15:03:00;;;;;;;3.97;2.10;;;11.00;93.30;;;;;;6219274;23;20002;-75
2023/08/15 15:58:18;;;;;;;3.97;1.80;;;11.00;94.70;;;;;;6215555;22;20084;-74
2023/08/15 16:00:45;;;;;;;3.78;2.08;;;11.00;94.70;;;;;;6214218;23;20015;-75
2023/08/15 16:03:12;;;;;;;3.67;1.92;;;11.00;94.80;;;;;;6214477;23;20008;-74
2023/08/15 16:05:40;;;;;;;6.57;2.30;;;11.00;94.90;;;;;;6214222;23;20000;-75
2023/08/15 16:08:07;;;;;;;3.55;2.33;;;11.00;94.70;;;;;;6213606;23;20362;-75
2023/08/15 16:10:35;;;;;;;4.32;2.05;;;11.00;94.80;;;;;;6213277;23;20003;-75
2023/08/15 16:13:02;;;;;;;3.95;2.22;;;11.00;94.80;;;;;;6188167;23;20012;-75
2023/08/15 16:15:30;;;;;;;2.10;1.90;;;11.00;94.70;;;;;;6214879;23;20007;-72
2023/08/15 16:17:57;;;;;;;4.72;2.15;;;11.00;94.80;;;;;;6214450;23;20000;-72
2023/08/15 16:20:24;;;;;;;6.63;2.20;;;11.00;94.90;;;;;;6214737;23;20004;-72
2023/08/15 16:22:51;;;;;;;4.60;2.15;;;11.00;95.00;;;;;;6214827;23;20004;-73
2023/08/15 16:25:19;;;;;;;7.93;2.40;;;11.00;95.10;;;;;;6214538;23;20499;-72
2023/08/15 16:27:46;;;;;;;4.60;2.35;;;11.00;95.00;;;;;;6187450;23;20005;-73
2023/08/15 16:30:13;;;;;;;5.88;2.30;;;11.00;95.10;;;;;;6212829;23;20047;-73
2023/08/15 16:32:40;;;;;;;5.45;2.78;;;11.00;95.20;;;;;;6187798;23;20012;-72
2023/08/15 16:35:08;;;;;;;3.70;2.28;;;11.00;95.50;;;;;;6214421;23;20032;-73
2023/08/15 16:37:35;;;;;;;4.18;2.25;;;11.00;95.50;;;;;;6213287;23;20015;-72
2023/08/15 16:40:02;;;;;;;4.28;2.10;;;11.00;95.50;;;;;;6215125;23;20004;-73
2023/08/15 16:42:30;;;;;;;5.68;2.42;;;11.00;95.60;;;;;;6188347;23;20412;-72
2023/08/15 16:44:57;;;;;;;4.20;2.25;;;11.00;95.70;;;;;;6213815;23;20004;-72
2023/08/15 16:47:24;;;;;;;5.30;2.40;;;11.00;95.60;;;;;;6212518;23;20088;-72
2023/08/15 16:49:51;;;;;;;6.93;2.47;;;10.90;95.50;;;;;;6213671;23;20032;-73
2023/08/15 16:52:18;;;;;;;4.45;2.00;;;10.90;95.60;;;;;;6212886;23;20032;-73
2023/08/15 16:54:46;;;;;;;5.57;2.33;;;11.00;95.70;;;;;;6215997;23;20026;-73
2023/08/15 16:57:13;;;;;;;6.13;2.30;;;11.00;95.70;;;;;;6228759;23;20028;-73
2023/08/15 16:59:41;;;;;;;6.13;2.50;;;11.00;95.70;;;;;;6246491;23;20071;-73
2023/08/15 17:02:09;;;;;;;5.38;2.33;;;10.90;95.80;;;;;;6245878;23;20443;-73
2023/08/15 17:04:36;;;;;;;5.05;2.75;;;11.00;95.80;;;;;;6246718;23;20054;-72
2023/08/15 17:07:03;;;;;;;4.53;2.22;;;10.90;95.60;;;;;;6245110;23;20057;-72
2023/08/15 17:09:30;;;;;;;3.75;2.42;;;10.90;95.70;;;;;;6246955;23;20007;-72
2023/08/15 17:11:57;;;;;;;5.38;2.45;;;10.80;95.70;;;;;;6246412;23;20086;-72
2023/08/15 17:14:25;;;;;;;5.00;2.10;;;10.80;95.70;;;;;;6246181;23;20005;-72
2023/08/15 17:16:52;;;;;;;5.45;2.42;;;10.80;95.80;;;;;;6246570;23;19996;-72
2023/08/15 17:19:19;;;;;;;5.15;2.20;;;10.90;96.00;;;;;;6246425;23;20034;-72
2023/08/15 17:21:46;;;;;;;5.57;2.30;;;11.00;96.00;;;;;;6220231;23;20012;-72
2023/08/15 17:24:14;;;;;;;5.43;2.00;;;11.00;96.10;;;;;;6246357;23;20000;-72
2023/08/15 17:26:41;;;;;;;5.70;2.20;;;11.00;96.10;;;;;;6246414;23;20142;-72
2023/08/15 17:29:08;;;;;;;3.65;2.05;;;11.00;96.00;;;;;;6246806;23;20082;-72
2023/08/15 17:31:35;;;;;;;8.05;2.45;;;11.00;95.90;;;;;;6246134;23;20047;-72
2023/08/15 17:34:03;;;;;;;4.20;2.35;;;11.00;95.90;;;;;;6245377;23;20001;-74
2023/08/15 17:36:30;;;;;;;3.55;2.28;;;11.00;96.00;;;;;;6219700;23;20030;-75
2023/08/15 17:38:58;;;;;;;4.50;2.30;;;10.90;95.90;;;;;;6246443;23;20327;-73
2023/08/15 17:41:25;;;;;;;4.15;2.35;;;10.90;96.00;;;;;;6246689;23;20003;-73
2023/08/15 17:43:52;;;;;;;5.00;2.20;;;10.90;96.00;;;;;;6220109;23;20007;-73
2023/08/15 17:46:19;;;;;;;5.97;2.30;;;10.90;96.00;;;;;;6245716;23;20031;-72
2023/08/15 17:48:46;;;;;;;4.00;2.13;;;10.90;96.10;;;;;;6245381;23;20011;-73
2023/08/15 17:51:14;;;;;;;4.55;2.20;;;10.90;96.10;;;;;;6245212;23;20453;-73
2023/08/15 17:53:41;;;;;;;4.25;1.98;;;10.90;96.10;;;;;;6218934;23;20032;-73
2023/08/15 17:56:08;;;;;;;7.45;2.38;;;10.90;96.10;;;;;;6246298;23;20046;-73
2023/08/15 17:58:49;;;;;;;5.15;1.98;;;10.80;96.00;;;;;;6246127;23;20011;-73
2023/08/15 18:01:16;;;;;;;7.70;2.17;;;10.70;96.00;;;;;;6245930;23;20000;-73
2023/08/15 18:03:45;;;;;;;6.88;2.30;;;10.70;96.10;;;;;;6194210;23;20043;-73
2023/08/15 18:06:13;;;;;;;6.05;2.17;;;10.70;96.10;;;;;;6246404;23;20094;-73
2023/08/15 18:08:40;;;;;;;6.72;2.60;;;10.70;96.10;;;;;;6219837;23;20000;-73
2023/08/15 18:11:08;;;;;;;6.68;3.33;;;10.70;96.20;;;;;;6219969;23;20008;-73
2023/08/15 18:13:36;;;;;;;6.97;2.75;;;10.80;96.20;;;;;;6244278;23;20019;-73
2023/08/15 18:16:03;;;;;;;4.65;2.90;;;10.70;96.20;;;;;;6245734;23;20004;-73
2023/08/15 18:18:31;;;;;;;4.60;2.90;;;10.80;96.20;;;;;;6245679;23;20004;-73
2023/08/15 18:20:58;;;;;;;6.72;3.10;;;10.80;96.20;;;;;;6245752;23;20012;-75
2023/08/15 18:23:25;;;;;;;6.35;3.00;;;10.80;96.30;;;;;;6245576;23;20007;-76
2023/08/15 18:25:52;;;;;;;5.20;3.30;;;10.80;96.20;;;;;;6246495;23;20323;-74
2023/08/15 18:28:20;;;;;;;5.20;2.95;;;10.80;96.20;;;;;;6219590;23;20031;-74
2023/08/15 18:30:47;;;;;;;8.68;3.25;;;10.70;96.10;;;;;;6245342;23;19997;-74
2023/08/15 18:33:14;;;;;;;4.90;2.80;;;10.70;96.10;;;;;;6244758;23;20083;-74
2023/08/15 18:35:41;;;;;;;8.40;2.97;;;10.70;95.90;;;;;;6245616;23;20059;-74
2023/08/15 18:38:08;;;;;;;5.93;2.75;;;10.70;95.80;;;;;;6245742;23;20000;-73
2023/08/15 18:40:36;;;;;;;5.95;3.00;;;10.70;95.80;;;;;;6219052;23;19997;-73
2023/08/15 18:43:03;;;;;;;7.30;2.80;;;10.70;95.80;;;;;;6219272;23;20343;-73
2023/08/15 18:45:30;;;;;;;6.65;2.40;;;10.70;95.80;;;;;;6217671;23;20010;-73
2023/08/15 18:47:58;;;;;;;6.38;2.80;;;10.60;95.80;;;;;;6245354;23;20493;-74
2023/08/15 18:50:25;;;;;;;5.40;2.70;;;10.70;95.80;;;;;;6243361;23;20019;-75
2023/08/15 18:52:52;;;;;;;5.95;2.75;;;10.70;95.80;;;;;;6245606;23;20300;-73
2023/08/15 18:55:19;;;;;;;7.72;2.92;;;10.60;95.80;;;;;;6245395;23;20008;-75
2023/08/15 18:57:46;;;;;;;4.40;2.40;;;10.60;95.70;;;;;;6243656;23;20098;-74
2023/08/15 19:00:14;;;;;;;6.95;2.65;;;10.60;95.60;;;;;;6244917;23;20058;-73
2023/08/15 19:02:41;;;;;;;6.07;2.78;;;10.50;95.40;;;;;;6244666;23;20000;-74
2023/08/15 19:05:09;;;;;;;4.07;2.33;;;10.50;95.40;;;;;;6245010;23;20031;-74
2023/08/15 19:07:37;;;;;;;7.68;2.80;;;10.50;95.30;;;;;;6218995;23;20107;-74
2023/08/15 19:10:05;;;;;;;7.20;2.65;;;10.50;95.50;;;;;;6244770;23;20000;-74
2023/08/15 19:12:35;;;;;;;7.25;2.92;;;10.50;95.50;;;;;;6217280;23;20107;-74
2023/08/15 19:15:05;;;;;;;4.65;2.85;;;10.50;95.50;;;;;;6245018;23;20030;-74
2023/08/15 19:17:35;;;;;;;5.15;2.90;;;10.50;95.60;;;;;;6242451;23;20439;-74
2023/08/15 19:20:02;;;;;;;4.00;2.73;;;10.40;95.60;;;;;;6218864;23;20004;-74
2023/08/15 19:22:29;;;;;;;6.28;2.70;;;10.40;95.50;;;;;;6245298;23;20001;-74
2023/08/15 19:24:56;;;;;;;5.57;3.22;;;10.40;95.50;;;;;;6244977;23;20323;-74
2023/08/15 19:27:24;;;;;;;6.43;2.70;;;10.40;95.40;;;;;;6245419;23;20415;-74
2023/08/15 19:29:51;;;;;;;7.03;2.70;;;10.40;95.50;;;;;;6244747;23;20430;-73
2023/08/15 19:32:18;;;;;;;7.72;3.00;;;10.40;95.50;;;;;;6245205;23;20016;-73
2023/08/15 19:34:49;;;;;;;4.80;2.50;;;10.40;95.50;;;;;;6245620;23;20059;-73
2023/08/15 19:37:16;;;;;;;5.57;2.42;;;10.30;95.40;;;;;;6218313;23;20007;-73
2023/08/15 19:39:44;;;;;;;5.32;2.65;;;10.30;95.50;;;;;;6245090;23;20000;-73
2023/08/15 19:42:11;;;;;;;6.22;2.40;;;10.30;95.30;;;;;;6218997;23;20075;-72
2023/08/15 19:44:38;;;;;;;5.55;2.40;;;10.30;95.30;;;;;;6244960;23;20429;-73
2023/08/15 19:47:05;;;;;;;2.95;2.40;;;10.30;95.30;;;;;;6244858;23;20047;-73
2023/08/15 19:49:33;;;;;;;3.58;2.30;;;10.20;95.20;;;;;;6244984;23;20008;-73
2023/08/15 19:52:01;;;;;;;4.43;2.53;;;10.20;95.20;;;;;;6218304;23;20085;-73
2023/08/15 19:54:28;;;;;;;4.60;2.60;;;10.20;95.10;;;;;;6245088;23;20000;-73
2023/08/15 19:56:55;;;;;;;5.40;2.22;;;10.20;95.00;;;;;;6244588;23;20012;-73
2023/08/15 19:59:22;;;;;;;4.70;2.47;;;10.20;94.90;;;;;;6244833;23;20554;-73
2023/08/15 20:01:50;;;;;;;4.15;2.50;;;10.10;94.70;;;;;;6244733;23;20431;-73
2023/08/15 20:04:17;;;;;;;4.30;2.30;;;10.00;94.60;;;;;;6245083;23;20322;-73
2023/08/15 20:06:44;;;;;;;6.28;2.53;;;10.10;94.70;;;;;;6244045;23;20008;-73
2023/08/15 20:09:11;;;;;;;3.13;2.08;;;10.20;94.90;;;;;;6244504;23;20083;-73
2023/08/15 20:11:39;;;;;;;4.45;2.53;;;10.10;94.80;;;;;;6244708;23;20001;-74
2023/08/15 20:14:06;;;;;;;4.93;2.40;;;10.10;94.80;;;;;;6244660;23;20004;-73
2023/08/15 20:16:33;;;;;;;6.07;2.58;;;10.10;94.90;;;;;;6244304;23;20075;-73
2023/08/15 20:19:00;;;;;;;3.65;2.50;;;10.00;94.70;;;;;;6244972;23;20000;-73
2023/08/15 20:21:27;;;;;;;4.50;2.30;;;10.00;94.70;;;;;;6218174;23;20339;-73
2023/08/15 20:23:55;;;;;;;8.63;2.80;;;10.00;94.70;;;;;;6244265;23;20015;-73
2023/08/15 20:26:22;;;;;;;3.47;2.42;;;10.00;94.60;;;;;;6215083;23;20083;-73
2023/08/15 20:28:49;;;;;;;4.55;2.60;;;9.90;94.60;;;;;;6242484;23;20046;-72
2023/08/15 20:31:16;;;;;;;3.83;2.03;;;9.90;94.50;;;;;;6244649;23;20036;-73
2023/08/15 20:33:44;;;;;;;5.22;2.40;;;9.90;94.70;;;;;;6244671;23;20012;-73
2023/08/15 20:36:13;;;;;;;3.40;2.60;;;10.00;94.70;;;;;;6244083;23;20076;-75
2023/08/15 20:38:40;;;;;;;3.70;2.22;;;9.90;94.70;;;;;;6216577;23;20051;-75
2023/08/15 20:41:07;;;;;;;4.50;2.35;;;9.90;94.80;;;;;;6244839;23;20020;-74
2023/08/15 20:43:35;;;;;;;4.97;2.60;;;10.00;94.80;;;;;;6244368;23;20412;-75
2023/08/15 20:46:02;;;;;;;3.70;2.40;;;10.00;94.70;;;;;;6217946;23;20000;-75
2023/08/15 20:48:30;;;;;;;7.50;2.60;;;10.00;94.60;;;;;;6217729;23;20071;-75
2023/08/15 20:50:57;;;;;;;4.03;2.75;;;9.90;94.60;;;;;;6243608;23;20031;-75
2023/08/15 20:53:24;;;;;;;4.18;2.05;;;9.90;94.80;;;;;;6217482;23;20012;-75
2023/08/15 20:55:51;;;;;;;6.93;2.78;;;9.90;94.60;;;;;;6217994;23;20008;-75
2023/08/15 20:58:19;;;;;;;6.47;2.17;;;9.90;94.60;;;;;;6244482;23;20086;-75
2023/08/15 21:00:46;;;;;;;4.72;2.60;;;9.90;94.60;;;;;;6244066;23;20331;-74
2023/08/15 21:03:13;;;;;;;3.35;2.47;;;9.90;94.60;;;;;;6242944;23;20007;-75
2023/08/15 21:05:42;;;;;;;5.45;2.70;;;9.80;94.50;;;;;;6243897;23;20001;-75
2023/08/15 21:08:09;;;;;;;3.55;2.38;;;9.80;94.80;;;;;;6217570;23;20004;-75
2023/08/15 21:10:36;;;;;;;5.75;3.08;;;9.90;95.00;;;;;;6244768;23;20083;-75
2023/08/15 21:13:04;;;;;;;5.35;2.53;;;9.90;95.00;;;;;;6217924;23;20015;-74
2023/08/15 21:15:31;;;;;;;5.32;2.60;;;9.90;95.00;;;;;;6244467;23;20067;-75
2023/08/15 21:17:58;;;;;;;3.50;2.80;;;10.00;95.20;;;;;;6244340;23;20095;-75
2023/08/15 21:20:25;;;;;;;6.55;2.75;;;10.00;95.20;;;;;;6244322;23;20387;-74
2023/08/15 21:22:53;;;;;;;6.40;3.20;;;10.10;95.30;;;;;;6243907;23;20000;-75
2023/08/15 21:25:20;;;;;;;9.25;3.80;;;10.00;95.10;;;;;;6244095;23;20327;-74
2023/08/15 21:27:47;;;;;;;6.65;3.65;;;10.00;95.10;;;;;;6243652;23;20066;-75
2023/08/15 21:30:14;;;;;;;5.80;3.65;;;10.00;95.00;;;;;;6244303;23;20318;-74
2023/08/15 21:32:42;;;;;;;4.47;3.35;;;10.00;95.00;;;;;;6244697;23;20013;-75
2023/08/15 21:35:09;;;;;;;7.45;3.83;;;10.00;95.00;;;;;;6242958;23;20046;-75
2023/08/15 21:37:36;;;;;;;8.80;3.60;;;10.10;95.20;;;;;;6244671;23;20039;-75
2023/08/15 21:40:04;;;;;;;4.68;3.60;;;10.20;95.30;;;;;;6245894;23;20011;-75
